nws-alerts: Checking more than four warning/county codes can delay the loading of your pages. You should use a cron job to get the data.

Nearby METAR Reports

 

KKLS - Kelso Longveiw, Washington, USA
Distance from station: ESE 7mi, 11km
Updated: Wed, 20-Jun-2018 3:56am PDT
Clear
Clear
 Wind from calm
Wind: Calm
Temperature: 61°F , 16°C
Dew Point: 55°F , 13°C
Humidity: 83%
Barometer: 1014.9 hPa
Clouds: Clear
Visibility: 10 miles , 16 km
2018/06/20 10:56 KKLS 201056Z AUTO 00000KT 10SM CLR 16/13 A2997 RMK AO2 SLP153 T01610133
KSPB - Scappoose, Oregon, USA
Distance from station: SSE 29mi, 46km
Updated: Wed, 20-Jun-2018 3:53am PDT
Clear
Clear
 Wind from calm
Wind: Calm
Temperature: 57°F , 14°C
Dew Point: 54°F , 12°C
Humidity: 88%
Barometer: 1013.9 hPa
Clouds: Clear
Visibility: 10 miles , 16 km
2018/06/20 10:53 KSPB 201053Z AUTO 00000KT 10SM CLR 14/12 A2994 RMK AO2 SLP138 T01440122
 
KCLS - Chehalis Central, Washington, USA
Distance from station: N 36mi, 58km
Updated: Wed, 20-Jun-2018 4:35am PDT
Clear
Clear
 Wind from calm
Wind: Calm
Temperature: 59°F , 15°C
Dew Point: 59°F , 15°C
Humidity: 100%
Barometer: 1014.6 hPa
Clouds: Clear
Visibility: 10 miles , 16 km
2018/06/20 11:35 KCLS 201135Z AUTO 00000KT 10SM CLR 15/15 A2996 RMK AO2
KAST - Astoria, Oregon, USA
Distance from station: W 41mi, 66km
Updated: Wed, 20-Jun-2018 4:30am PDT
Mist, Overcast
Mist, Overcast
 Wind from SSW
Wind: SSW 5 mph , 7 km/h
Temperature: 57°F , 14°C
Dew Point: 57°F , 14°C
Humidity: 100%
Barometer: 1015.2 hPa
Summary: Mist
Clouds: Overcast
Visibility: 3/4 mile , 1.2 km
Cloud details: Overcast 300 ft
2018/06/20 11:30 KAST 201130Z AUTO 21004KT 3/4SM BR OVC003 14/14 A2998 RMK AO2 T01390139
 
KVUO - Vancouver, Washington, USA
Distance from station: SSE 42mi, 68km
Updated: Wed, 20-Jun-2018 3:53am PDT
Clear
Clear
 Wind from calm
Wind: Calm
Temperature: 63°F , 17°C
Dew Point: 57°F , 14°C
Humidity: 83%
Barometer: 1013.9 hPa
Clouds: Clear
Visibility: 10 miles , 16 km
2018/06/20 10:53 KVUO 201053Z AUTO 00000KT 10SM CLR 17/14 A2994 RMK AO2 SLP139 T01720139
KHIO - Hillsboro/Portld, Oregon, USA
Distance from station: S 43mi, 69km
Updated: Wed, 20-Jun-2018 3:53am PDT
Clear
Clear
 Wind from NNW
Wind: NNW 3 mph , 6 km/h
Temperature: 59°F , 15°C
Dew Point: 55°F , 13°C
Humidity: 88%
Barometer: 1013.9 hPa
Clouds: Clear
Visibility: 10 miles , 16 km
2018/06/20 10:53 KHIO 201053Z AUTO 33003KT 10SM CLR 15/13 A2994 RMK AO2 SLP135 T01500128
 
KPDX - Portland, Oregon, USA
Distance from station: SSE 44mi, 70km
Updated: Wed, 20-Jun-2018 3:53am PDT
Mostly cloudy
Mostly cloudy
 Wind from WNW
Wind: WNW 3 mph , 6 km/h
Temperature: 64°F , 18°C
Dew Point: 59°F , 15°C
Humidity: 83%
Barometer: 1014.2 hPa
Clouds: Mostly cloudy
Visibility: 10 miles , 16 km
Cloud details: Few Clouds 13000 ft
Mostly cloudy 25000 ft
2018/06/20 10:53 KPDX 201053Z 30003KT 10SM FEW130 BKN250 18/15 A2995 RMK AO2 SLP139 T01830150 $